Time;durP1;ratioP1;P1;durP2;ratioP2;P2;SDS_P1;SDS_P2;PMS_P1;PMS_P2;Temp;Humidity;BMP_temperature;BMP_pressure;BME280_temperature;BME280_humidity;BME280_pressure;Samples;Min_cycle;Max_cycle;Signal;HPM_P1;HPM_P2
2023/12/21 00:01:46;;;;;;;12.40;8.07;;;7.70;99.90;;;;;;4961559;29;20657;-62
2023/12/21 00:04:15;;;;;;;9.23;7.67;;;7.70;99.90;;;;;;4962109;29;20516;-61
2023/12/21 00:06:42;;;;;;;8.70;7.80;;;7.70;99.90;;;;;;4962010;29;20463;-62
2023/12/21 00:09:09;;;;;;;9.17;8.10;;;7.70;99.90;;;;;;4961538;28;20506;-63
2023/12/21 00:11:38;;;;;;;11.80;8.30;;;7.70;99.90;;;;;;4961400;29;20501;-62
2023/12/21 00:14:06;;;;;;;10.30;8.77;;;7.70;99.90;;;;;;4962247;29;20466;-62
2023/12/21 00:16:33;;;;;;;12.10;7.97;;;7.70;99.90;;;;;;4962627;29;20561;-62
2023/12/21 00:19:00;;;;;;;10.40;7.87;;;7.70;99.90;;;;;;4985774;28;20495;-63
2023/12/21 00:21:29;;;;;;;12.17;8.40;;;7.80;99.90;;;;;;5000354;28;20488;-63
2023/12/21 00:23:57;;;;;;;10.93;9.63;;;7.80;99.90;;;;;;5000577;28;20504;-65
2023/12/21 00:26:24;;;;;;;8.97;7.80;;;7.70;99.90;;;;;;5000672;28;20520;-63
2023/12/21 00:28:51;;;;;;;10.50;8.57;;;7.80;99.90;;;;;;5001024;28;20460;-63
2023/12/21 00:31:18;;;;;;;11.67;8.73;;;7.80;99.90;;;;;;5000487;28;20975;-63
2023/12/21 00:33:45;;;;;;;9.27;7.70;;;7.80;99.90;;;;;;5001407;28;20544;-64
2023/12/21 00:36:17;;;;;;;8.77;7.97;;;7.80;99.90;;;;;;5000114;28;20431;-64
2023/12/21 00:38:45;;;;;;;11.33;7.93;;;7.80;99.90;;;;;;4999678;28;20457;-62
2023/12/21 00:41:12;;;;;;;7.90;6.93;;;7.80;99.90;;;;;;5000328;28;20461;-62
2023/12/21 00:43:39;;;;;;;9.63;6.80;;;7.80;99.90;;;;;;5000699;28;20460;-64
2023/12/21 00:46:07;;;;;;;7.20;6.50;;;7.80;99.90;;;;;;5001197;28;20456;-64
2023/12/21 00:48:34;;;;;;;8.70;7.17;;;7.80;99.90;;;;;;5000133;28;20497;-64
2023/12/21 00:51:01;;;;;;;9.10;7.50;;;7.90;99.90;;;;;;4999831;28;20468;-63
2023/12/21 00:53:28;;;;;;;9.03;7.80;;;7.90;99.90;;;;;;5000105;28;20525;-63
2023/12/21 00:55:57;;;;;;;8.00;7.20;;;7.90;99.90;;;;;;5000454;28;20495;-63
2023/12/21 00:58:24;;;;;;;8.97;7.43;;;7.90;99.90;;;;;;5000212;28;20468;-64
2023/12/21 01:00:51;;;;;;;8.00;6.90;;;7.80;99.90;;;;;;5000590;28;20534;-63
2023/12/21 01:03:18;;;;;;;9.53;7.07;;;7.90;99.90;;;;;;4999274;28;20471;-63
2023/12/21 01:05:46;;;;;;;9.40;7.80;;;7.90;99.90;;;;;;4999597;28;20886;-63
2023/12/21 01:08:13;;;;;;;7.90;7.10;;;7.90;99.90;;;;;;4999937;28;20460;-63
2023/12/21 01:10:40;;;;;;;10.60;7.93;;;7.90;99.90;;;;;;4999801;28;20467;-68
2023/12/21 01:13:09;;;;;;;10.80;7.97;;;7.90;99.90;;;;;;5000467;28;20787;-64
2023/12/21 01:15:36;;;;;;;8.23;7.23;;;7.90;99.90;;;;;;5002040;28;20512;-66
2023/12/21 01:18:03;;;;;;;9.10;8.17;;;7.90;99.90;;;;;;5002481;28;20957;-67
2023/12/21 01:20:31;;;;;;;11.03;8.93;;;7.90;99.90;;;;;;5003057;28;20461;-64
2023/12/21 01:22:58;;;;;;;10.37;8.43;;;7.90;99.90;;;;;;5001205;28;20468;-64
2023/12/21 01:25:25;;;;;;;9.40;7.67;;;7.90;99.90;;;;;;4999922;28;20536;-67
2023/12/21 01:27:53;;;;;;;11.37;7.20;;;7.90;99.90;;;;;;4999492;28;20781;-65
2023/12/21 01:30:23;;;;;;;7.87;7.07;;;7.90;99.90;;;;;;5010480;28;20462;-64
2023/12/21 01:32:50;;;;;;;8.07;6.33;;;7.90;99.90;;;;;;5019210;28;20767;-65
2023/12/21 01:35:17;;;;;;;6.40;5.70;;;7.90;99.90;;;;;;5018578;28;20812;-63
2023/12/21 01:37:44;;;;;;;8.73;6.20;;;7.90;99.90;;;;;;5018430;28;20439;-63
2023/12/21 01:40:12;;;;;;;8.90;6.00;;;7.90;99.90;;;;;;5018052;28;20442;-63
2023/12/21 01:42:40;;;;;;;8.03;6.77;;;7.90;99.90;;;;;;5018347;28;20456;-63
2023/12/21 01:45:08;;;;;;;8.73;6.97;;;8.00;99.90;;;;;;5017860;28;20464;-63
2023/12/21 01:47:37;;;;;;;9.03;8.00;;;8.00;99.90;;;;;;5018352;28;20463;-63
2023/12/21 01:50:05;;;;;;;9.63;8.37;;;8.00;99.90;;;;;;5017873;28;20475;-62
2023/12/21 01:52:32;;;;;;;9.47;8.47;;;8.00;99.90;;;;;;5018570;28;20491;-62
2023/12/21 01:55:00;;;;;;;10.50;9.27;;;8.00;99.90;;;;;;5018025;28;20460;-62
2023/12/21 01:57:27;;;;;;;11.80;8.90;;;8.00;99.90;;;;;;5017961;28;20462;-62
2023/12/21 01:59:55;;;;;;;10.97;9.87;;;8.00;99.90;;;;;;5018243;28;20467;-62
2023/12/21 02:02:22;;;;;;;14.10;11.00;;;8.00;99.90;;;;;;5018057;28;20460;-63
2023/12/21 02:04:52;;;;;;;11.13;9.97;;;8.00;99.90;;;;;;5018206;28;20570;-63
2023/12/21 02:07:19;;;;;;;12.37;11.00;;;8.00;99.90;;;;;;5017742;28;20470;-63
2023/12/21 02:09:46;;;;;;;14.53;12.50;;;8.00;99.90;;;;;;5017924;28;20554;-64
2023/12/21 02:12:14;;;;;;;16.37;12.43;;;8.00;99.90;;;;;;5018015;28;20499;-63
2023/12/21 02:14:41;;;;;;;14.03;12.63;;;8.00;99.90;;;;;;5017359;28;20550;-63
2023/12/21 02:17:40;;;;;;;15.90;13.07;;;8.10;99.90;;;;;;5017942;28;20546;-63
2023/12/21 02:20:10;;;;;;;17.97;12.20;;;8.00;99.90;;;;;;4998582;28;20507;-63
2023/12/21 02:22:40;;;;;;;13.03;11.17;;;8.10;99.90;;;;;;4998623;28;20864;-63
2023/12/21 02:25:09;;;;;;;13.23;11.77;;;8.10;99.90;;;;;;4997883;28;20520;-66
2023/12/21 02:27:36;;;;;;;13.00;11.67;;;8.10;99.90;;;;;;4998396;28;20852;-64
2023/12/21 02:30:04;;;;;;;15.10;12.57;;;8.10;99.90;;;;;;4998663;28;20773;-65
2023/12/21 02:32:31;;;;;;;14.37;12.40;;;8.10;99.90;;;;;;4999930;28;20471;-65
2023/12/21 02:34:58;;;;;;;14.83;11.97;;;8.00;99.90;;;;;;5000413;28;20460;-65
2023/12/21 02:37:25;;;;;;;13.97;10.90;;;8.10;99.90;;;;;;4999523;28;20460;-65
2023/12/21 02:39:52;;;;;;;13.53;10.87;;;8.00;99.90;;;;;;5000495;28;20528;-66
2023/12/21 02:42:21;;;;;;;15.97;11.27;;;8.10;99.90;;;;;;4999295;28;20984;-64
2023/12/21 02:44:48;;;;;;;12.43;10.90;;;8.10;99.90;;;;;;4999266;28;20460;-64
2023/12/21 02:47:15;;;;;;;12.67;11.40;;;8.10;99.90;;;;;;4998753;28;20554;-64
2023/12/21 02:49:42;;;;;;;11.33;9.67;;;8.10;99.90;;;;;;4998843;28;20466;-64
2023/12/21 02:52:10;;;;;;;11.10;9.03;;;8.10;99.90;;;;;;4998134;28;20770;-63
2023/12/21 02:54:37;;;;;;;13.10;9.10;;;8.10;99.90;;;;;;4998426;28;20539;-62
2023/12/21 02:57:04;;;;;;;7.60;6.60;;;8.10;99.90;;;;;;4998279;28;20769;-63
2023/12/21 02:59:33;;;;;;;10.00;6.80;;;8.10;99.90;;;;;;4997659;28;20799;-63
2023/12/21 03:02:00;;;;;;;7.80;6.23;;;8.10;99.90;;;;;;4998230;28;20460;-66
2023/12/21 03:04:27;;;;;;;7.00;6.30;;;8.10;99.90;;;;;;4998442;28;20472;-64
2023/12/21 03:06:54;;;;;;;7.20;6.40;;;8.10;99.90;;;;;;5000450;28;20547;-63
2023/12/21 03:09:21;;;;;;;7.50;6.47;;;8.10;99.90;;;;;;5001777;28;20471;-65
2023/12/21 03:11:49;;;;;;;8.40;7.50;;;8.10;99.90;;;;;;5001779;28;20529;-64
2023/12/21 03:14:16;;;;;;;7.03;6.33;;;8.10;99.90;;;;;;5002459;28;20496;-64
2023/12/21 03:16:45;;;;;;;7.77;6.40;;;8.10;99.90;;;;;;5003051;28;20461;-69
2023/12/21 03:19:12;;;;;;;6.90;6.20;;;8.10;99.90;;;;;;5014792;28;20499;-67
2023/12/21 03:21:39;;;;;;;7.33;6.33;;;8.10;99.90;;;;;;5022239;28;20470;-67
2023/12/21 03:24:07;;;;;;;7.83;5.43;;;8.10;99.90;;;;;;5021859;28;20765;-65
2023/12/21 03:26:36;;;;;;;7.47;6.23;;;8.10;99.90;;;;;;5021546;28;20914;-66
2023/12/21 03:29:03;;;;;;;7.23;6.00;;;8.10;99.90;;;;;;5020774;28;20442;-64
2023/12/21 03:31:30;;;;;;;6.80;5.77;;;8.10;99.90;;;;;;5021071;28;20772;-65
2023/12/21 03:33:58;;;;;;;7.27;5.57;;;8.10;99.90;;;;;;5020593;28;20496;-63
2023/12/21 03:36:27;;;;;;;6.00;4.53;;;8.10;99.90;;;;;;5020632;28;20467;-62
2023/12/21 03:38:54;;;;;;;8.40;6.00;;;8.10;99.90;;;;;;5020597;28;20460;-63
2023/12/21 03:41:21;;;;;;;6.00;4.67;;;8.10;99.90;;;;;;5020219;28;20456;-67
2023/12/21 03:43:48;;;;;;;5.43;4.80;;;8.10;99.90;;;;;;5020550;28;20729;-63
2023/12/21 03:46:15;;;;;;;6.13;4.87;;;8.10;99.90;;;;;;5019963;28;20464;-66
2023/12/21 03:48:42;;;;;;;6.20;5.10;;;8.10;99.90;;;;;;5020750;28;20464;-64
2023/12/21 03:51:11;;;;;;;6.20;4.93;;;8.10;99.90;;;;;;5020485;28;20470;-63
2023/12/21 03:53:38;;;;;;;5.33;4.83;;;8.10;99.90;;;;;;5020400;28;20499;-64
2023/12/21 03:56:07;;;;;;;6.87;6.00;;;8.10;99.90;;;;;;5020485;28;20467;-64
2023/12/21 03:58:34;;;;;;;8.90;5.73;;;8.10;99.90;;;;;;5020352;28;20467;-66
2023/12/21 04:01:01;;;;;;;7.57;6.60;;;8.10;99.90;;;;;;5020748;28;20460;-65
2023/12/21 04:03:28;;;;;;;10.93;5.80;;;8.20;99.90;;;;;;5020235;28;20456;-63
2023/12/21 04:05:56;;;;;;;6.00;5.10;;;8.10;99.90;;;;;;5021024;28;20566;-65
2023/12/21 04:08:23;;;;;;;6.20;5.60;;;8.10;99.90;;;;;;5020369;28;20802;-64
2023/12/21 04:10:50;;;;;;;7.43;5.97;;;8.10;99.90;;;;;;5019928;28;20562;-63
2023/12/21 04:13:18;;;;;;;6.30;5.30;;;8.10;99.90;;;;;;5020228;28;20518;-67
2023/12/21 04:15:45;;;;;;;6.10;5.13;;;8.10;99.90;;;;;;5019771;28;20932;-64
2023/12/21 04:18:12;;;;;;;6.80;5.67;;;8.10;99.90;;;;;;5019401;28;21059;-64
2023/12/21 04:20:39;;;;;;;7.37;6.10;;;8.20;99.90;;;;;;5019917;28;20445;-64
2023/12/21 04:23:06;;;;;;;7.87;5.90;;;8.10;99.90;;;;;;5019739;28;20547;-65
2023/12/21 04:25:35;;;;;;;6.77;4.77;;;8.20;99.90;;;;;;5019231;28;20434;-64
2023/12/21 04:28:03;;;;;;;6.00;5.13;;;8.20;99.90;;;;;;5019505;28;20439;-64
2023/12/21 04:30:30;;;;;;;7.57;5.27;;;8.20;99.90;;;;;;5019990;28;20460;-63
2023/12/21 04:32:58;;;;;;;6.13;5.00;;;8.20;99.90;;;;;;5019335;28;20492;-64
2023/12/21 04:35:25;;;;;;;5.50;4.90;;;8.20;99.90;;;;;;5019227;28;20514;-65
2023/12/21 04:37:52;;;;;;;7.43;5.67;;;8.20;99.90;;;;;;5017883;28;20478;-63
2023/12/21 04:40:19;;;;;;;7.23;5.00;;;8.10;99.90;;;;;;5017832;28;20519;-64
2023/12/21 04:42:55;;;;;;;8.80;6.30;;;8.20;99.90;;;;;;5017600;28;20550;-64
2023/12/21 04:46:15;;;;;;;8.03;6.20;;;8.20;99.90;;;;;;5017030;28;20513;-66
2023/12/21 04:48:42;;;;;;;8.00;6.27;;;8.20;99.90;;;;;;5020883;28;20431;-67
2023/12/21 04:51:15;;;;;;;6.27;4.80;;;8.20;99.90;;;;;;5019885;28;20464;-66
2023/12/21 04:53:42;;;;;;;7.63;5.53;;;8.20;99.90;;;;;;5020335;28;20502;-66
2023/12/21 04:56:09;;;;;;;6.43;4.37;;;8.10;99.90;;;;;;5020240;28;20468;-68
2023/12/21 04:58:38;;;;;;;6.10;4.43;;;8.20;99.90;;;;;;5020012;28;20439;-66
2023/12/21 05:01:06;;;;;;;5.00;3.50;;;8.20;99.90;;;;;;5019305;28;20464;-64
2023/12/21 05:03:33;;;;;;;5.33;3.80;;;8.20;99.90;;;;;;5019824;28;20456;-64
2023/12/21 05:06:00;;;;;;;5.07;3.70;;;8.20;99.90;;;;;;5019558;28;20466;-64
2023/12/21 05:08:28;;;;;;;4.50;3.20;;;8.20;99.90;;;;;;5019710;28;20464;-64
2023/12/21 05:10:55;;;;;;;6.97;3.80;;;8.20;99.90;;;;;;5019685;28;20471;-64
2023/12/21 05:13:22;;;;;;;4.63;3.07;;;8.20;99.90;;;;;;5019118;28;20495;-65
2023/12/21 05:15:51;;;;;;;4.80;3.27;;;8.20;99.90;;;;;;5019534;28;20930;-66
2023/12/21 05:18:19;;;;;;;3.50;2.50;;;8.20;99.90;;;;;;5020009;28;20482;-65
2023/12/21 05:20:47;;;;;;;4.17;2.33;;;8.20;99.90;;;;;;5019201;28;20758;-65
2023/12/21 05:23:14;;;;;;;2.83;2.27;;;8.20;99.90;;;;;;5018928;28;20517;-66
2023/12/21 05:25:41;;;;;;;3.53;2.30;;;8.20;99.90;;;;;;5018763;28;20470;-65
2023/12/21 05:28:08;;;;;;;3.83;2.80;;;8.20;99.90;;;;;;5018834;28;20466;-64
2023/12/21 05:30:35;;;;;;;2.83;2.50;;;8.20;99.90;;;;;;5019038;28;20460;-66
2023/12/21 05:33:04;;;;;;;4.83;2.70;;;8.30;99.90;;;;;;5019159;28;20928;-66
2023/12/21 05:35:32;;;;;;;5.43;2.60;;;8.20;99.90;;;;;;5018558;28;20500;-65
2023/12/21 05:37:59;;;;;;;3.60;2.80;;;8.30;99.90;;;;;;5018966;28;20909;-64
2023/12/21 05:40:26;;;;;;;4.40;2.90;;;8.30;99.90;;;;;;5019018;28;20889;-64
2023/12/21 05:42:54;;;;;;;4.57;3.27;;;8.30;99.90;;;;;;5018521;28;20887;-65
2023/12/21 05:45:21;;;;;;;3.80;3.40;;;8.20;99.90;;;;;;5018697;28;20503;-64
2023/12/21 05:47:48;;;;;;;4.67;3.93;;;8.20;99.90;;;;;;5018280;28;20464;-63
2023/12/21 05:50:17;;;;;;;4.23;3.50;;;8.30;99.90;;;;;;5018236;28;20486;-64
2023/12/21 05:52:44;;;;;;;5.73;3.73;;;8.30;99.90;;;;;;5018664;28;20556;-67
2023/12/21 05:55:15;;;;;;;6.30;3.60;;;8.30;99.90;;;;;;5018111;28;20552;-65
2023/12/21 05:57:43;;;;;;;4.70;3.83;;;8.30;99.90;;;;;;5018802;28;20490;-63
2023/12/21 06:00:12;;;;;;;4.67;4.20;;;8.30;99.90;;;;;;5018557;28;20500;-66
2023/12/21 06:02:39;;;;;;;5.87;3.53;;;8.30;99.90;;;;;;5018479;28;20464;-66
2023/12/21 06:05:08;;;;;;;6.27;3.80;;;8.30;99.90;;;;;;5018652;28;20496;-64
2023/12/21 06:07:37;;;;;;;5.17;4.07;;;8.30;99.90;;;;;;5018627;28;20465;-65
2023/12/21 06:10:05;;;;;;;7.80;4.27;;;8.30;99.90;;;;;;5018523;28;20460;-65
2023/12/21 06:12:32;;;;;;;6.53;4.00;;;8.40;99.90;;;;;;5017915;28;20476;-67
2023/12/21 06:14:59;;;;;;;6.97;4.33;;;8.30;99.90;;;;;;5018207;28;20460;-66
2023/12/21 06:17:26;;;;;;;5.30;4.03;;;8.30;99.90;;;;;;5018545;28;20558;-69
2023/12/21 06:19:53;;;;;;;5.13;4.20;;;8.40;99.90;;;;;;5002785;28;20470;-63
2023/12/21 06:22:21;;;;;;;8.63;5.27;;;8.40;99.90;;;;;;4997460;28;20466;-67
2023/12/21 06:24:49;;;;;;;6.33;4.93;;;8.40;99.90;;;;;;4998038;28;20461;-65
2023/12/21 06:27:17;;;;;;;5.00;4.50;;;8.40;99.90;;;;;;4999197;28;20571;-66
2023/12/21 06:29:44;;;;;;;10.07;4.43;;;8.40;99.90;;;;;;4998927;28;20461;-67
2023/12/21 06:32:11;;;;;;;12.77;5.00;;;8.40;99.90;;;;;;4998048;28;20465;-65
2023/12/21 06:34:39;;;;;;;11.33;6.17;;;8.40;99.90;;;;;;4997989;28;20496;-65
2023/12/21 06:37:07;;;;;;;7.83;4.87;;;8.40;99.90;;;;;;4998437;28;20555;-70
2023/12/21 06:39:34;;;;;;;8.23;5.40;;;8.40;99.90;;;;;;5000631;28;20486;-65
2023/12/21 06:42:02;;;;;;;6.20;5.20;;;8.50;99.90;;;;;;5000046;28;20461;-65
2023/12/21 06:44:29;;;;;;;6.67;4.60;;;8.50;99.90;;;;;;5001646;28;20457;-68
2023/12/21 06:46:57;;;;;;;7.73;5.90;;;8.50;99.90;;;;;;5001914;28;20457;-65
2023/12/21 06:49:24;;;;;;;8.67;5.17;;;8.50;99.90;;;;;;5001879;28;20460;-71
2023/12/21 06:51:51;;;;;;;7.77;5.13;;;8.50;99.90;;;;;;5001517;28;20577;-66
2023/12/21 06:54:18;;;;;;;8.80;5.90;;;8.40;99.90;;;;;;5001780;28;20503;-65
2023/12/21 06:56:46;;;;;;;6.87;5.40;;;8.50;99.90;;;;;;5001989;28;20527;-68
2023/12/21 06:59:14;;;;;;;8.87;5.83;;;8.50;99.90;;;;;;5012493;28;20562;-66
2023/12/21 07:01:41;;;;;;;13.73;6.13;;;8.50;99.90;;;;;;5008119;28;20821;-66
2023/12/21 07:04:09;;;;;;;8.00;5.80;;;8.50;99.90;;;;;;5001102;28;20463;-66
2023/12/21 07:06:36;;;;;;;9.20;5.47;;;8.50;99.90;;;;;;5001201;28;20784;-65
2023/12/21 07:09:03;;;;;;;10.67;6.10;;;8.40;99.90;;;;;;5001332;28;20456;-63
2023/12/21 07:11:30;;;;;;;10.80;7.53;;;8.50;99.90;;;;;;5001052;28;20492;-66
2023/12/21 07:13:58;;;;;;;10.37;7.60;;;8.50;99.90;;;;;;5000542;28;20489;-66
2023/12/21 07:16:26;;;;;;;12.93;8.77;;;8.50;99.90;;;;;;5000827;28;20547;-65
2023/12/21 07:18:53;;;;;;;11.10;8.13;;;8.50;99.90;;;;;;5000392;28;20484;-66
2023/12/21 07:21:20;;;;;;;12.20;7.10;;;8.50;99.90;;;;;;5000210;28;20482;-66
2023/12/21 07:23:48;;;;;;;8.03;7.03;;;8.50;99.90;;;;;;5000567;28;20850;-65
2023/12/21 07:26:15;;;;;;;10.00;5.67;;;8.50;99.90;;;;;;5000434;28;20471;-65
2023/12/21 07:28:42;;;;;;;9.80;5.50;;;8.50;99.90;;;;;;5000830;28;20543;-67
2023/12/21 07:31:13;;;;;;;7.03;6.00;;;8.50;99.90;;;;;;5000491;28;20465;-65
2023/12/21 07:33:42;;;;;;;8.13;6.03;;;8.50;99.90;;;;;;5000319;28;20603;-65
2023/12/21 07:36:09;;;;;;;10.50;6.97;;;8.50;99.90;;;;;;5000794;28;20779;-68
2023/12/21 07:38:37;;;;;;;11.47;7.23;;;8.50;99.90;;;;;;5000627;28;20471;-67
2023/12/21 07:41:05;;;;;;;17.27;7.93;;;8.50;99.90;;;;;;5000015;28;20760;-66
2023/12/21 07:43:32;;;;;;;17.17;7.63;;;8.60;99.90;;;;;;4999960;28;20495;-69
2023/12/21 07:45:59;;;;;;;8.60;6.70;;;8.60;99.90;;;;;;5000440;28;20450;-67
2023/12/21 07:48:26;;;;;;;13.50;6.80;;;8.60;99.90;;;;;;5000587;28;20937;-66
2023/12/21 07:50:55;;;;;;;11.83;5.97;;;8.50;99.90;;;;;;5000312;28;20465;-65
2023/12/21 07:53:22;;;;;;;8.50;5.97;;;8.50;99.90;;;;;;4998919;28;20583;-66
2023/12/21 07:55:49;;;;;;;12.20;6.50;;;8.60;99.90;;;;;;4999594;28;20461;-64
2023/12/21 07:58:16;;;;;;;8.10;5.70;;;8.60;99.90;;;;;;5008722;28;20945;-69
2023/12/21 08:00:44;;;;;;;9.97;5.80;;;8.60;99.90;;;;;;5003069;28;20540;-65
2023/12/21 08:03:11;;;;;;;8.70;6.20;;;8.60;99.90;;;;;;5011888;28;20550;-66
2023/12/21 08:05:38;;;;;;;9.40;5.40;;;8.60;99.90;;;;;;5006407;28;20440;-72
2023/12/21 08:08:07;;;;;;;12.00;6.13;;;8.60;99.90;;;;;;5013981;28;20559;-69
2023/12/21 08:10:34;;;;;;;9.77;5.93;;;8.60;99.90;;;;;;5019359;28;20460;-68
2023/12/21 08:13:01;;;;;;;13.63;7.10;;;8.60;99.90;;;;;;5019313;28;20435;-70
2023/12/21 08:15:28;;;;;;;10.07;6.70;;;8.60;99.90;;;;;;5019115;28;20496;-67
2023/12/21 08:17:56;;;;;;;13.53;7.87;;;8.60;99.90;;;;;;5019182;28;20487;-66
2023/12/21 08:20:23;;;;;;;19.40;7.80;;;8.60;99.90;;;;;;5019006;28;20464;-65
2023/12/21 08:22:51;;;;;;;10.27;6.80;;;8.70;99.90;;;;;;5011972;28;20509;-68
2023/12/21 08:25:20;;;;;;;13.70;6.57;;;8.60;99.90;;;;;;4998358;28;20520;-67
2023/12/21 08:27:47;;;;;;;12.43;7.50;;;8.60;99.90;;;;;;4998466;28;20465;-66
2023/12/21 08:30:14;;;;;;;18.53;7.53;;;8.70;99.90;;;;;;4999268;28;20440;-72
2023/12/21 08:32:42;;;;;;;11.60;5.60;;;8.70;99.90;;;;;;4999818;28;20527;-71
2023/12/21 08:35:09;;;;;;;10.87;6.23;;;8.70;99.90;;;;;;4999313;28;20475;-64
2023/12/21 08:37:36;;;;;;;9.63;5.70;;;8.70;99.90;;;;;;4999554;28;20446;-65
2023/12/21 08:40:04;;;;;;;17.03;6.30;;;8.70;99.90;;;;;;4999367;28;20759;-65
2023/12/21 08:42:32;;;;;;;9.53;5.73;;;8.70;99.90;;;;;;4998021;28;20471;-66
2023/12/21 08:45:04;;;;;;;7.90;5.30;;;8.70;99.90;;;;;;4998157;28;20905;-68
2023/12/21 08:47:32;;;;;;;10.73;5.17;;;8.70;99.90;;;;;;4998269;28;20477;-67
2023/12/21 08:50:03;;;;;;;9.43;5.10;;;8.70;99.90;;;;;;4997798;28;20491;-66
2023/12/21 08:52:31;;;;;;;7.63;4.40;;;8.70;99.90;;;;;;4997679;28;20460;-65
2023/12/21 08:54:58;;;;;;;7.57;4.47;;;8.70;99.90;;;;;;4997682;28;20765;-70
2023/12/21 08:57:25;;;;;;;5.53;3.97;;;8.70;99.90;;;;;;4999870;28;20523;-65
2023/12/21 08:59:54;;;;;;;6.20;4.13;;;8.70;99.90;;;;;;5010639;28;20493;-65
2023/12/21 09:02:21;;;;;;;10.23;4.23;;;8.80;99.90;;;;;;5007114;28;20464;-67
2023/12/21 09:04:48;;;;;;;8.10;4.20;;;8.80;99.90;;;;;;5012513;28;20464;-66
2023/12/21 09:07:15;;;;;;;6.00;3.97;;;8.80;99.90;;;;;;5018728;28;20460;-67
2023/12/21 09:09:42;;;;;;;9.07;3.83;;;8.80;99.90;;;;;;5019060;28;20559;-70
2023/12/21 09:12:10;;;;;;;6.83;3.97;;;8.80;99.90;;;;;;5019459;28;20460;-69
2023/12/21 09:14:37;;;;;;;5.20;3.63;;;8.80;99.90;;;;;;5019869;28;20491;-67
2023/12/21 09:17:06;;;;;;;6.77;3.17;;;8.80;99.90;;;;;;5016861;28;20481;-68
2023/12/21 09:19:34;;;;;;;4.73;3.03;;;8.80;99.90;;;;;;5017018;28;20481;-66
2023/12/21 09:22:02;;;;;;;4.30;3.17;;;8.80;99.90;;;;;;5019451;28;20471;-67
2023/12/21 09:24:29;;;;;;;7.10;3.17;;;8.80;99.90;;;;;;5019482;28;20466;-64
2023/12/21 09:26:56;;;;;;;4.10;3.17;;;8.80;99.90;;;;;;5019623;28;20460;-66
2023/12/21 09:29:23;;;;;;;3.63;3.10;;;8.80;99.90;;;;;;5018960;28;20555;-69
2023/12/21 09:31:50;;;;;;;3.90;2.50;;;8.80;99.90;;;;;;5019047;28;20461;-65
2023/12/21 09:34:19;;;;;;;3.90;2.50;;;8.80;99.90;;;;;;5019042;28;20492;-66
2023/12/21 09:36:46;;;;;;;4.07;2.80;;;8.80;99.90;;;;;;5018815;28;20968;-69
2023/12/21 09:39:14;;;;;;;5.73;2.07;;;8.90;99.90;;;;;;5018479;28;20940;-67
2023/12/21 09:41:41;;;;;;;5.33;2.60;;;8.90;99.90;;;;;;5012217;28;20460;-66
2023/12/21 09:44:11;;;;;;;5.53;3.30;;;8.90;99.90;;;;;;5006433;28;20792;-70
2023/12/21 09:46:40;;;;;;;3.73;2.80;;;8.90;99.90;;;;;;5011117;28;20461;-67
2023/12/21 09:49:07;;;;;;;4.07;2.70;;;8.90;99.90;;;;;;4997892;28;20887;-72
2023/12/21 09:51:38;;;;;;;7.37;3.10;;;8.90;99.90;;;;;;4996685;28;20479;-67
2023/12/21 09:54:07;;;;;;;3.60;2.90;;;9.00;99.90;;;;;;4997673;28;20492;-67
2023/12/21 09:56:35;;;;;;;4.70;2.80;;;8.90;99.90;;;;;;4998050;28;20556;-68
2023/12/21 09:59:07;;;;;;;3.93;2.53;;;8.90;99.90;;;;;;4998083;28;20500;-68
2023/12/21 10:01:34;;;;;;;3.83;2.57;;;9.00;99.90;;;;;;4998065;28;20551;-67
2023/12/21 10:04:02;;;;;;;4.37;2.80;;;9.00;99.90;;;;;;4997217;28;20467;-68
2023/12/21 10:06:29;;;;;;;3.77;3.00;;;9.00;99.90;;;;;;4996564;28;20931;-66
2023/12/21 10:08:58;;;;;;;3.20;2.67;;;9.00;99.90;;;;;;4996621;28;20530;-70
2023/12/21 10:11:25;;;;;;;3.37;2.63;;;9.00;99.90;;;;;;4997001;28;20560;-66
2023/12/21 10:13:56;;;;;;;3.17;2.20;;;9.00;99.90;;;;;;4997235;28;20495;-68
2023/12/21 10:16:26;;;;;;;5.50;3.00;;;9.00;99.90;;;;;;5003004;28;20746;-66
2023/12/21 10:18:53;;;;;;;4.10;2.50;;;9.00;99.90;;;;;;5004505;28;20463;-69
2023/12/21 10:21:22;;;;;;;2.93;2.40;;;9.00;99.90;;;;;;5004236;28;20465;-68
2023/12/21 10:23:50;;;;;;;3.63;2.40;;;9.00;99.90;;;;;;5004371;28;20579;-71
2023/12/21 10:26:19;;;;;;;3.77;2.60;;;9.10;99.90;;;;;;5004592;28;20559;-69
2023/12/21 10:28:48;;;;;;;3.07;1.80;;;9.10;99.90;;;;;;5004797;28;20533;-68
2023/12/21 10:31:16;;;;;;;3.10;2.10;;;9.10;99.90;;;;;;5004722;28;20842;-65
2023/12/21 10:33:43;;;;;;;4.77;1.90;;;9.10;99.90;;;;;;5004928;28;20527;-73
2023/12/21 10:36:11;;;;;;;6.03;2.40;;;9.10;99.90;;;;;;5004597;28;20843;-74
2023/12/21 10:38:38;;;;;;;4.10;2.33;;;9.10;99.90;;;;;;5005504;28;20562;-70
2023/12/21 10:41:06;;;;;;;3.30;2.10;;;9.10;99.90;;;;;;5004744;28;20474;-65
2023/12/21 10:43:35;;;;;;;4.57;2.20;;;9.10;99.90;;;;;;5005275;28;20761;-70
2023/12/21 10:46:03;;;;;;;3.30;1.70;;;9.20;99.90;;;;;;5004792;28;20992;-68
2023/12/21 10:48:33;;;;;;;4.50;2.50;;;9.20;99.90;;;;;;5005013;28;20442;-66
2023/12/21 10:51:04;;;;;;;3.10;1.80;;;9.10;99.90;;;;;;5004984;28;20465;-67
2023/12/21 10:53:31;;;;;;;2.80;2.10;;;9.20;99.90;;;;;;5005608;28;20554;-64
2023/12/21 10:55:58;;;;;;;2.90;2.20;;;9.20;99.90;;;;;;5004329;28;20467;-67
2023/12/21 10:58:27;;;;;;;3.03;2.23;;;9.20;99.90;;;;;;5004329;28;20484;-70
2023/12/21 11:00:57;;;;;;;5.40;2.83;;;9.20;99.90;;;;;;5004240;28;20465;-67
2023/12/21 11:03:26;;;;;;;3.87;2.63;;;9.20;99.90;;;;;;5003960;28;20528;-71
2023/12/21 11:05:53;;;;;;;4.10;2.30;;;9.30;99.90;;;;;;5004683;28;20832;-64
2023/12/21 11:08:21;;;;;;;3.80;2.70;;;9.30;99.90;;;;;;5006454;28;20457;-73
2023/12/21 11:10:51;;;;;;;3.40;2.57;;;9.30;99.90;;;;;;5024711;28;20466;-68
2023/12/21 11:13:18;;;;;;;2.93;2.20;;;9.30;99.90;;;;;;5024070;28;20459;-66
2023/12/21 11:15:46;;;;;;;4.40;3.17;;;9.30;99.90;;;;;;5023623;28;20539;-67
2023/12/21 11:18:18;;;;;;;4.70;3.73;;;9.30;99.90;;;;;;5023830;28;20487;-68
2023/12/21 11:20:51;;;;;;;4.30;3.50;;;9.40;99.90;;;;;;5023570;28;20563;-66
2023/12/21 11:23:18;;;;;;;6.67;3.87;;;9.40;99.90;;;;;;5022525;28;20472;-66
2023/12/21 11:25:54;;;;;;;5.67;4.17;;;9.50;99.90;;;;;;5023376;28;20840;-68
2023/12/21 11:28:27;;;;;;;4.30;3.90;;;9.50;99.90;;;;;;5020159;28;20516;-67
2023/12/21 11:30:54;;;;;;;4.60;4.00;;;9.50;99.90;;;;;;5020177;28;20472;-67
2023/12/21 11:33:32;;;;;;;7.97;3.97;;;9.50;99.90;;;;;;5019943;28;20475;-67
2023/12/21 11:36:02;;;;;;;4.83;4.17;;;9.50;99.90;;;;;;5000211;28;20485;-68
2023/12/21 11:38:45;;;;;;;5.90;5.00;;;9.50;99.90;;;;;;5000175;28;20508;-68
2023/12/21 11:41:12;;;;;;;6.73;5.93;;;9.50;99.90;;;;;;5000456;28;20911;-67
2023/12/21 11:43:40;;;;;;;9.40;6.00;;;9.60;99.90;;;;;;5000262;28;20454;-66
2023/12/21 11:46:09;;;;;;;8.00;5.93;;;9.50;99.90;;;;;;4999037;28;20470;-65
2023/12/21 11:48:40;;;;;;;6.70;6.00;;;9.60;99.90;;;;;;4997991;28;20465;-64
2023/12/21 11:51:07;;;;;;;6.30;5.70;;;9.60;99.90;;;;;;4998162;28;20523;-67
2023/12/21 11:53:35;;;;;;;7.40;5.80;;;9.70;99.90;;;;;;4999091;28;20890;-67
2023/12/21 11:56:13;;;;;;;8.43;6.63;;;9.70;99.90;;;;;;5000630;28;20543;-65
2023/12/21 11:58:43;;;;;;;9.97;6.20;;;9.70;99.90;;;;;;5018680;28;20463;-66
2023/12/21 12:01:23;;;;;;;8.47;5.17;;;9.70;99.90;;;;;;5019082;28;20447;-65
2023/12/21 12:03:52;;;;;;;11.97;6.03;;;9.70;99.90;;;;;;5017876;28;20431;-65
2023/12/21 12:06:20;;;;;;;5.93;5.33;;;9.80;99.90;;;;;;5017908;28;20460;-66
2023/12/21 12:08:47;;;;;;;6.83;4.97;;;9.80;99.90;;;;;;5017228;28;20598;-64
2023/12/21 12:11:14;;;;;;;5.80;5.03;;;9.80;99.90;;;;;;5017221;28;20464;-64
2023/12/21 12:13:42;;;;;;;8.33;4.80;;;9.80;99.90;;;;;;5017549;28;20461;-67
2023/12/21 12:16:10;;;;;;;8.47;5.00;;;9.80;99.90;;;;;;5017581;28;20553;-66
2023/12/21 12:18:38;;;;;;;7.17;4.73;;;9.80;99.90;;;;;;5017804;28;21011;-64
2023/12/21 12:21:07;;;;;;;9.17;4.27;;;9.90;99.90;;;;;;5015750;28;20913;-68
2023/12/21 12:23:34;;;;;;;9.10;4.77;;;9.90;99.90;;;;;;5017674;28;20555;-70
2023/12/21 12:26:03;;;;;;;7.37;4.03;;;9.90;99.90;;;;;;4999372;28;20468;-66
2023/12/21 12:28:31;;;;;;;5.10;4.03;;;9.90;99.90;;;;;;4999297;28;20465;-65
2023/12/21 12:30:58;;;;;;;7.00;4.10;;;9.90;99.90;;;;;;4999284;28;20484;-66
2023/12/21 12:33:26;;;;;;;5.67;4.40;;;9.90;99.90;;;;;;4998581;28;20780;-68
2023/12/21 12:35:53;;;;;;;4.60;3.30;;;9.90;99.90;;;;;;4999276;28;20493;-63
2023/12/21 12:38:22;;;;;;;3.63;2.70;;;9.90;99.90;;;;;;4998459;28;20555;-66
2023/12/21 12:40:50;;;;;;;4.50;2.67;;;9.90;99.90;;;;;;5001586;28;20461;-64
2023/12/21 12:43:18;;;;;;;4.80;2.87;;;9.90;99.90;;;;;;4997747;28;20471;-65
2023/12/21 12:45:46;;;;;;;3.43;2.40;;;9.90;99.90;;;;;;4997592;28;20531;-71
2023/12/21 12:48:18;;;;;;;3.80;2.60;;;9.90;99.90;;;;;;4998791;28;20518;-65
2023/12/21 12:50:45;;;;;;;5.13;2.60;;;9.90;99.90;;;;;;4998585;28;20469;-65
2023/12/21 12:53:12;;;;;;;3.30;2.03;;;9.90;99.90;;;;;;4998682;28;20468;-67
2023/12/21 12:55:45;;;;;;;5.00;2.37;;;9.90;99.90;;;;;;4998082;28;20611;-65
2023/12/21 12:58:16;;;;;;;5.83;2.70;;;9.80;99.90;;;;;;4997459;28;20864;-65